ADDS METAR Data

Data at: 1830 UTC 20 Jul 2018

METAR for:KMLT (Millinocket Muni, ME, US)
Text:KMLT 201753Z AUTO 19004KT 10SM CLR 29/14 A3016 RMK AO2 SLP217 T02890139 10289 20194 58007
Temperature: 28.9°C ( 84°F)
Dewpoint: 13.9°C ( 57°F) [RH = 40%]
Pressure (altimeter):30.16 inches Hg (1021.4 mb) [Sea level pressure: 1021.7 mb]
Winds:from the S (190 degrees) at 5 MPH (4 knots; 2.1 m/s)
Visibility:10 or more sm (16+ km)
Ceiling:at least 12,000 feet AGL
Clouds:sky clear below 12,000 feet AGL
QC Flag:automated observation with no human augmentation